Terminal Aerodrome Forecast
Issued by NWS

Home | Current Version | Previous Version | Text Only | Print | Product List | Glossary On
Versions: 1 2 3 4 5 6 7 8 9 10 11 12 13 14 15 16 17
000
FTUS44 KEPZ 181100
TAFTCS
TAF
KTCS 181120Z 1812/1912 34003KT P6SM -SHRA FEW030 SCT060 BKN110
     FM181600 04007KT P6SM SHRA SCT015 BKN025 OVC040
     FM190200 36007KT P6SM VCSH SCT010 BKN020 OVC040
     FM190700 34005KT P6SM SCT050 BKN100 OVC150=

USA.gov is the U.S. government's official web portal to all federal, state and local government web resources and services.